sensor_id;sensor_type;location;lat;lon;timestamp;temperature;humidity
42663;DHT22;44330;51.360;6.686;2023-04-03T00:02:05;1.20;79.30
42663;DHT22;44330;51.360;6.686;2023-04-03T00:04:31;1.10;79.30
42663;DHT22;44330;51.360;6.686;2023-04-03T00:06:56;1.10;79.80
42663;DHT22;44330;51.360;6.686;2023-04-03T00:09:22;1.10;80.30
42663;DHT22;44330;51.360;6.686;2023-04-03T00:11:47;1.00;80.60
42663;DHT22;44330;51.360;6.686;2023-04-03T00:14:13;1.00;81.00
42663;DHT22;44330;51.360;6.686;2023-04-03T00:16:39;1.00;81.60
42663;DHT22;44330;51.360;6.686;2023-04-03T00:19:04;1.00;82.50
42663;DHT22;44330;51.360;6.686;2023-04-03T00:21:30;0.90;83.30
42663;DHT22;44330;51.360;6.686;2023-04-03T00:23:56;0.90;83.80
42663;DHT22;44330;51.360;6.686;2023-04-03T00:26:22;0.90;84.00
42663;DHT22;44330;51.360;6.686;2023-04-03T00:28:47;0.80;84.40
42663;DHT22;44330;51.360;6.686;2023-04-03T00:31:16;0.80;84.70
42663;DHT22;44330;51.360;6.686;2023-04-03T00:33:42;0.80;84.80
42663;DHT22;44330;51.360;6.686;2023-04-03T00:36:09;0.70;85.00
42663;DHT22;44330;51.360;6.686;2023-04-03T00:38:36;0.70;85.50
42663;DHT22;44330;51.360;6.686;2023-04-03T00:41:02;0.70;86.20
42663;DHT22;44330;51.360;6.686;2023-04-03T00:43:28;0.70;86.60
42663;DHT22;44330;51.360;6.686;2023-04-03T00:45:55;0.70;87.10
42663;DHT22;44330;51.360;6.686;2023-04-03T00:48:35;0.70;87.60
42663;DHT22;44330;51.360;6.686;2023-04-03T00:51:03;0.70;87.70
42663;DHT22;44330;51.360;6.686;2023-04-03T00:53:37;0.60;87.90
42663;DHT22;44330;51.360;6.686;2023-04-03T00:56:06;0.60;88.30
42663;DHT22;44330;51.360;6.686;2023-04-03T00:58:40;0.60;88.40
42663;DHT22;44330;51.360;6.686;2023-04-03T01:01:10;0.60;88.60
42663;DHT22;44330;51.360;6.686;2023-04-03T01:03:37;0.60;88.90
42663;DHT22;44330;51.360;6.686;2023-04-03T01:06:03;0.60;89.20
42663;DHT22;44330;51.360;6.686;2023-04-03T01:08:30;0.60;89.50
42663;DHT22;44330;51.360;6.686;2023-04-03T01:10:55;0.60;89.80
42663;DHT22;44330;51.360;6.686;2023-04-03T01:13:30;0.60;89.90
42663;DHT22;44330;51.360;6.686;2023-04-03T01:15:57;0.60;90.20
42663;DHT22;44330;51.360;6.686;2023-04-03T01:18:25;0.70;90.40
42663;DHT22;44330;51.360;6.686;2023-04-03T01:24:10;0.90;91.20
42663;DHT22;44330;51.360;6.686;2023-04-03T01:26:37;1.00;91.50
42663;DHT22;44330;51.360;6.686;2023-04-03T01:29:03;1.40;92.80
42663;DHT22;44330;51.360;6.686;2023-04-03T01:31:46;1.50;92.50
42663;DHT22;44330;51.360;6.686;2023-04-03T01:34:12;1.60;92.30
42663;DHT22;44330;51.360;6.686;2023-04-03T01:36:38;1.60;92.10
42663;DHT22;44330;51.360;6.686;2023-04-03T01:39:04;1.70;92.40
42663;DHT22;44330;51.360;6.686;2023-04-03T01:41:29;2.00;91.90
42663;DHT22;44330;51.360;6.686;2023-04-03T01:43:55;2.00;90.90
42663;DHT22;44330;51.360;6.686;2023-04-03T01:46:21;2.00;90.60
42663;DHT22;44330;51.360;6.686;2023-04-03T01:48:46;2.20;90.40
42663;DHT22;44330;51.360;6.686;2023-04-03T01:51:12;2.30;88.50
42663;DHT22;44330;51.360;6.686;2023-04-03T01:53:38;2.60;82.40
42663;DHT22;44330;51.360;6.686;2023-04-03T01:56:04;2.80;75.50
42663;DHT22;44330;51.360;6.686;2023-04-03T01:58:30;3.00;73.60
42663;DHT22;44330;51.360;6.686;2023-04-03T02:00:55;3.10;71.60
42663;DHT22;44330;51.360;6.686;2023-04-03T02:03:21;3.20;67.00
42663;DHT22;44330;51.360;6.686;2023-04-03T02:05:47;3.40;58.10
42663;DHT22;44330;51.360;6.686;2023-04-03T02:08:13;3.50;54.30
42663;DHT22;44330;51.360;6.686;2023-04-03T02:10:39;3.60;50.80
42663;DHT22;44330;51.360;6.686;2023-04-03T02:13:05;3.60;51.00
42663;DHT22;44330;51.360;6.686;2023-04-03T02:15:30;3.70;49.60
42663;DHT22;44330;51.360;6.686;2023-04-03T02:17:56;3.70;46.40
42663;DHT22;44330;51.360;6.686;2023-04-03T02:20:21;3.70;49.10
42663;DHT22;44330;51.360;6.686;2023-04-03T02:22:47;3.70;49.40
42663;DHT22;44330;51.360;6.686;2023-04-03T02:25:13;3.70;48.30
42663;DHT22;44330;51.360;6.686;2023-04-03T02:27:38;3.60;49.00
42663;DHT22;44330;51.360;6.686;2023-04-03T02:30:04;3.60;46.50
42663;DHT22;44330;51.360;6.686;2023-04-03T02:32:30;3.60;43.30
42663;DHT22;44330;51.360;6.686;2023-04-03T02:34:56;3.60;40.50
42663;DHT22;44330;51.360;6.686;2023-04-03T02:37:22;3.60;41.60
42663;DHT22;44330;51.360;6.686;2023-04-03T02:39:47;3.60;44.30
42663;DHT22;44330;51.360;6.686;2023-04-03T02:42:13;3.60;41.10
42663;DHT22;44330;51.360;6.686;2023-04-03T02:44:38;3.50;41.10
42663;DHT22;44330;51.360;6.686;2023-04-03T02:47:04;3.50;43.90
42663;DHT22;44330;51.360;6.686;2023-04-03T02:49:30;3.50;44.40
42663;DHT22;44330;51.360;6.686;2023-04-03T02:51:56;3.40;46.20
42663;DHT22;44330;51.360;6.686;2023-04-03T02:54:21;3.50;44.80
42663;DHT22;44330;51.360;6.686;2023-04-03T02:56:49;3.40;45.20
42663;DHT22;44330;51.360;6.686;2023-04-03T02:59:15;3.40;47.60
42663;DHT22;44330;51.360;6.686;2023-04-03T03:01:41;3.40;47.40
42663;DHT22;44330;51.360;6.686;2023-04-03T03:04:06;3.30;48.20
42663;DHT22;44330;51.360;6.686;2023-04-03T03:06:32;3.30;49.80
42663;DHT22;44330;51.360;6.686;2023-04-03T03:08:58;3.20;52.90
42663;DHT22;44330;51.360;6.686;2023-04-03T03:11:23;3.20;52.20
42663;DHT22;44330;51.360;6.686;2023-04-03T03:13:49;3.20;50.60
42663;DHT22;44330;51.360;6.686;2023-04-03T03:16:14;3.20;49.80
42663;DHT22;44330;51.360;6.686;2023-04-03T03:18:40;3.20;49.00
42663;DHT22;44330;51.360;6.686;2023-04-03T03:21:06;3.20;48.30
42663;DHT22;44330;51.360;6.686;2023-04-03T03:23:32;3.20;49.00
42663;DHT22;44330;51.360;6.686;2023-04-03T03:26:04;3.20;47.30
42663;DHT22;44330;51.360;6.686;2023-04-03T03:28:30;3.20;44.20
42663;DHT22;44330;51.360;6.686;2023-04-03T03:30:57;3.20;45.70
42663;DHT22;44330;51.360;6.686;2023-04-03T03:33:23;3.20;46.40
42663;DHT22;44330;51.360;6.686;2023-04-03T03:35:49;3.10;46.60
42663;DHT22;44330;51.360;6.686;2023-04-03T03:38:15;3.10;46.90
42663;DHT22;44330;51.360;6.686;2023-04-03T03:40:40;3.10;47.40
42663;DHT22;44330;51.360;6.686;2023-04-03T03:43:07;3.10;46.60
42663;DHT22;44330;51.360;6.686;2023-04-03T03:45:33;3.10;45.80
42663;DHT22;44330;51.360;6.686;2023-04-03T03:47:58;3.10;44.50
42663;DHT22;44330;51.360;6.686;2023-04-03T03:50:24;3.20;42.60
42663;DHT22;44330;51.360;6.686;2023-04-03T03:52:50;3.20;40.50
42663;DHT22;44330;51.360;6.686;2023-04-03T03:55:16;3.20;41.50
42663;DHT22;44330;51.360;6.686;2023-04-03T03:57:41;3.10;39.70
42663;DHT22;44330;51.360;6.686;2023-04-03T04:00:07;3.10;40.70
42663;DHT22;44330;51.360;6.686;2023-04-03T04:02:34;3.00;42.30
42663;DHT22;44330;51.360;6.686;2023-04-03T04:04:59;3.00;44.20
42663;DHT22;44330;51.360;6.686;2023-04-03T04:07:25;3.00;44.60
42663;DHT22;44330;51.360;6.686;2023-04-03T04:09:53;2.90;47.90
42663;DHT22;44330;51.360;6.686;2023-04-03T04:12:19;2.80;49.40
42663;DHT22;44330;51.360;6.686;2023-04-03T04:14:45;2.80;49.40
42663;DHT22;44330;51.360;6.686;2023-04-03T04:17:12;2.80;47.20
42663;DHT22;44330;51.360;6.686;2023-04-03T04:19:38;2.80;44.40
42663;DHT22;44330;51.360;6.686;2023-04-03T04:22:03;2.80;42.40
42663;DHT22;44330;51.360;6.686;2023-04-03T04:24:29;2.80;42.50
42663;DHT22;44330;51.360;6.686;2023-04-03T04:26:55;2.80;43.40
42663;DHT22;44330;51.360;6.686;2023-04-03T04:29:20;2.70;43.30
42663;DHT22;44330;51.360;6.686;2023-04-03T04:31:46;2.80;44.10
42663;DHT22;44330;51.360;6.686;2023-04-03T04:34:11;2.80;42.20
42663;DHT22;44330;51.360;6.686;2023-04-03T04:36:38;2.80;39.10
42663;DHT22;44330;51.360;6.686;2023-04-03T04:39:04;2.80;40.50
42663;DHT22;44330;51.360;6.686;2023-04-03T04:41:31;2.80;41.40
42663;DHT22;44330;51.360;6.686;2023-04-03T04:43:57;2.80;41.10
42663;DHT22;44330;51.360;6.686;2023-04-03T04:46:22;2.80;41.20
42663;DHT22;44330;51.360;6.686;2023-04-03T04:48:48;2.80;41.40
42663;DHT22;44330;51.360;6.686;2023-04-03T04:51:14;2.80;39.40
42663;DHT22;44330;51.360;6.686;2023-04-03T04:53:40;2.80;42.50
42663;DHT22;44330;51.360;6.686;2023-04-03T04:56:06;2.80;39.70
42663;DHT22;44330;51.360;6.686;2023-04-03T04:58:35;2.70;41.60
42663;DHT22;44330;51.360;6.686;2023-04-03T05:01:06;2.70;41.60
42663;DHT22;44330;51.360;6.686;2023-04-03T05:03:32;2.70;39.80
42663;DHT22;44330;51.360;6.686;2023-04-03T05:05:58;2.70;40.30
42663;DHT22;44330;51.360;6.686;2023-04-03T05:08:24;2.70;41.60
42663;DHT22;44330;51.360;6.686;2023-04-03T05:10:50;2.70;41.60
42663;DHT22;44330;51.360;6.686;2023-04-03T05:13:16;2.70;41.40
42663;DHT22;44330;51.360;6.686;2023-04-03T05:15:42;2.70;44.10
42663;DHT22;44330;51.360;6.686;2023-04-03T05:18:07;2.70;42.40
42663;DHT22;44330;51.360;6.686;2023-04-03T05:20:33;2.60;43.30
42663;DHT22;44330;51.360;6.686;2023-04-03T05:22:59;2.60;40.20
42663;DHT22;44330;51.360;6.686;2023-04-03T05:25:25;2.60;42.00
42663;DHT22;44330;51.360;6.686;2023-04-03T05:27:51;2.60;41.60
42663;DHT22;44330;51.360;6.686;2023-04-03T05:30:17;2.60;41.60
42663;DHT22;44330;51.360;6.686;2023-04-03T05:32:42;2.60;43.70
42663;DHT22;44330;51.360;6.686;2023-04-03T05:35:08;2.60;41.80
42663;DHT22;44330;51.360;6.686;2023-04-03T05:37:35;2.60;38.30
42663;DHT22;44330;51.360;6.686;2023-04-03T05:40:00;2.70;35.30
42663;DHT22;44330;51.360;6.686;2023-04-03T05:42:26;2.60;38.90
42663;DHT22;44330;51.360;6.686;2023-04-03T05:44:51;2.60;36.80
42663;DHT22;44330;51.360;6.686;2023-04-03T05:47:18;2.60;37.00
42663;DHT22;44330;51.360;6.686;2023-04-03T05:49:44;2.70;37.30
42663;DHT22;44330;51.360;6.686;2023-04-03T05:52:29;2.60;39.20
42663;DHT22;44330;51.360;6.686;2023-04-03T05:54:56;2.60;39.30
42663;DHT22;44330;51.360;6.686;2023-04-03T05:57:22;2.70;35.90
42663;DHT22;44330;51.360;6.686;2023-04-03T05:59:48;2.70;36.80
42663;DHT22;44330;51.360;6.686;2023-04-03T06:02:16;2.60;38.20
42663;DHT22;44330;51.360;6.686;2023-04-03T06:04:42;2.60;39.70
42663;DHT22;44330;51.360;6.686;2023-04-03T06:07:12;2.60;40.40
42663;DHT22;44330;51.360;6.686;2023-04-03T06:09:38;2.60;37.60
42663;DHT22;44330;51.360;6.686;2023-04-03T06:12:04;2.60;41.70
42663;DHT22;44330;51.360;6.686;2023-04-03T06:14:29;2.60;42.40
42663;DHT22;44330;51.360;6.686;2023-04-03T06:16:55;2.60;42.80
42663;DHT22;44330;51.360;6.686;2023-04-03T06:19:21;2.60;40.90
42663;DHT22;44330;51.360;6.686;2023-04-03T06:21:47;2.70;41.80
42663;DHT22;44330;51.360;6.686;2023-04-03T06:24:15;2.70;42.60
42663;DHT22;44330;51.360;6.686;2023-04-03T06:26:41;2.70;36.80
42663;DHT22;44330;51.360;6.686;2023-04-03T06:29:07;2.70;41.20
42663;DHT22;44330;51.360;6.686;2023-04-03T06:31:33;2.70;44.30
42663;DHT22;44330;51.360;6.686;2023-04-03T06:33:59;2.80;44.00
42663;DHT22;44330;51.360;6.686;2023-04-03T06:36:24;2.70;40.00
42663;DHT22;44330;51.360;6.686;2023-04-03T06:38:51;2.80;44.00
42663;DHT22;44330;51.360;6.686;2023-04-03T06:41:17;2.80;39.30
42663;DHT22;44330;51.360;6.686;2023-04-03T06:43:43;3.00;35.30
42663;DHT22;44330;51.360;6.686;2023-04-03T06:46:21;3.00;35.00
42663;DHT22;44330;51.360;6.686;2023-04-03T06:48:47;3.00;33.20
42663;DHT22;44330;51.360;6.686;2023-04-03T06:51:19;3.10;33.70
42663;DHT22;44330;51.360;6.686;2023-04-03T06:53:45;3.20;27.40
42663;DHT22;44330;51.360;6.686;2023-04-03T06:56:11;3.20;28.40
42663;DHT22;44330;51.360;6.686;2023-04-03T06:58:37;3.30;33.00
42663;DHT22;44330;51.360;6.686;2023-04-03T07:01:02;3.40;31.50
42663;DHT22;44330;51.360;6.686;2023-04-03T07:03:28;3.50;19.70
42663;DHT22;44330;51.360;6.686;2023-04-03T07:05:53;3.50;24.40
42663;DHT22;44330;51.360;6.686;2023-04-03T07:08:19;3.50;17.80
42663;DHT22;44330;51.360;6.686;2023-04-03T07:10:45;3.60;17.00
42663;DHT22;44330;51.360;6.686;2023-04-03T07:13:10;3.70;7.70
42663;DHT22;44330;51.360;6.686;2023-04-03T07:15:36;3.70;10.80
42663;DHT22;44330;51.360;6.686;2023-04-03T07:18:02;3.80;10.10
42663;DHT22;44330;51.360;6.686;2023-04-03T07:20:28;3.80;2.50
42663;DHT22;44330;51.360;6.686;2023-04-03T07:22:53;3.90;7.60
42663;DHT22;44330;51.360;6.686;2023-04-03T07:25:19;3.90;1.00
42663;DHT22;44330;51.360;6.686;2023-04-03T07:27:45;4.00;1.00
42663;DHT22;44330;51.360;6.686;2023-04-03T07:30:11;4.10;1.00
42663;DHT22;44330;51.360;6.686;2023-04-03T07:32:36;4.20;1.00
42663;DHT22;44330;51.360;6.686;2023-04-03T07:35:03;4.40;1.00
42663;DHT22;44330;51.360;6.686;2023-04-03T07:37:28;4.50;1.00
42663;DHT22;44330;51.360;6.686;2023-04-03T07:39:54;4.60;99.90
42663;DHT22;44330;51.360;6.686;2023-04-03T07:42:20;4.70;99.90
42663;DHT22;44330;51.360;6.686;2023-04-03T07:44:46;4.80;99.90
42663;DHT22;44330;51.360;6.686;2023-04-03T07:47:12;5.00;99.90
42663;DHT22;44330;51.360;6.686;2023-04-03T07:49:39;5.20;99.90
42663;DHT22;44330;51.360;6.686;2023-04-03T07:52:06;5.40;1.00
42663;DHT22;44330;51.360;6.686;2023-04-03T07:54:32;5.40;96.00
42663;DHT22;44330;51.360;6.686;2023-04-03T07:56:58;5.60;99.90
42663;DHT22;44330;51.360;6.686;2023-04-03T07:59:24;5.90;99.90
42663;DHT22;44330;51.360;6.686;2023-04-03T08:01:50;5.90;99.90
42663;DHT22;44330;51.360;6.686;2023-04-03T08:04:15;6.10;99.90
42663;DHT22;44330;51.360;6.686;2023-04-03T08:06:41;6.10;99.90
42663;DHT22;44330;51.360;6.686;2023-04-03T08:09:06;6.30;40.50
42663;DHT22;44330;51.360;6.686;2023-04-03T08:11:32;6.50;1.00
42663;DHT22;44330;51.360;6.686;2023-04-03T08:13:57;6.60;99.90
42663;DHT22;44330;51.360;6.686;2023-04-03T08:16:24;6.80;99.90
42663;DHT22;44330;51.360;6.686;2023-04-03T08:18:52;7.00;99.90
42663;DHT22;44330;51.360;6.686;2023-04-03T08:21:18;7.00;99.90
42663;DHT22;44330;51.360;6.686;2023-04-03T08:23:44;7.00;99.90
42663;DHT22;44330;51.360;6.686;2023-04-03T08:26:12;7.10;99.90
42663;DHT22;44330;51.360;6.686;2023-04-03T08:28:38;7.30;99.90
42663;DHT22;44330;51.360;6.686;2023-04-03T08:31:11;7.70;99.90
42663;DHT22;44330;51.360;6.686;2023-04-03T08:33:38;8.10;99.90
42663;DHT22;44330;51.360;6.686;2023-04-03T08:36:15;8.30;37.90
42663;DHT22;44330;51.360;6.686;2023-04-03T08:38:43;8.40;1.00
42663;DHT22;44330;51.360;6.686;2023-04-03T08:44:18;8.50;1.00
42663;DHT22;44330;51.360;6.686;2023-04-03T08:49:45;8.60;99.90
42663;DHT22;44330;51.360;6.686;2023-04-03T08:52:18;8.20;99.90
42663;DHT22;44330;51.360;6.686;2023-04-03T08:54:56;8.00;99.90
42663;DHT22;44330;51.360;6.686;2023-04-03T08:57:33;8.50;99.90
42663;DHT22;44330;51.360;6.686;2023-04-03T09:00:23;9.10;99.90
42663;DHT22;44330;51.360;6.686;2023-04-03T09:02:56;9.50;99.90
42663;DHT22;44330;51.360;6.686;2023-04-03T09:06:04;9.60;99.90
42663;DHT22;44330;51.360;6.686;2023-04-03T09:11:27;9.30;99.90
42663;DHT22;44330;51.360;6.686;2023-04-03T09:14:45;9.20;99.90
42663;DHT22;44330;51.360;6.686;2023-04-03T09:17:21;9.10;99.90
42663;DHT22;44330;51.360;6.686;2023-04-03T09:19:56;9.30;99.90
42663;DHT22;44330;51.360;6.686;2023-04-03T09:22:25;9.40;99.90
42663;DHT22;44330;51.360;6.686;2023-04-03T09:27:47;9.10;92.00
42663;DHT22;44330;51.360;6.686;2023-04-03T09:30:15;9.50;99.90
42663;DHT22;44330;51.360;6.686;2023-04-03T09:32:41;9.70;71.50
42663;DHT22;44330;51.360;6.686;2023-04-03T09:37:51;9.40;49.70
42663;DHT22;44330;51.360;6.686;2023-04-03T09:40:37;9.20;28.90
42663;DHT22;44330;51.360;6.686;2023-04-03T09:43:28;9.50;13.40
42663;DHT22;44330;51.360;6.686;2023-04-03T09:45:55;9.40;3.50
42663;DHT22;44330;51.360;6.686;2023-04-03T09:48:24;9.50;5.30
42663;DHT22;44330;51.360;6.686;2023-04-03T09:53:38;10.10;1.00
42663;DHT22;44330;51.360;6.686;2023-04-03T09:56:25;9.80;1.00
42663;DHT22;44330;51.360;6.686;2023-04-03T09:59:07;10.00;1.00
42663;DHT22;44330;51.360;6.686;2023-04-03T10:01:39;10.00;1.00
42663;DHT22;44330;51.360;6.686;2023-04-03T10:06:35;10.20;1.00
42663;DHT22;44330;51.360;6.686;2023-04-03T10:09:14;10.50;1.00
42663;DHT22;44330;51.360;6.686;2023-04-03T10:12:04;10.70;1.00
42663;DHT22;44330;51.360;6.686;2023-04-03T10:14:32;10.70;1.00
42663;DHT22;44330;51.360;6.686;2023-04-03T10:17:31;10.10;1.00
42663;DHT22;44330;51.360;6.686;2023-04-03T10:23:02;10.30;1.00
42663;DHT22;44330;51.360;6.686;2023-04-03T10:25:35;10.50;1.00
42663;DHT22;44330;51.360;6.686;2023-04-03T10:28:36;10.20;1.00
42663;DHT22;44330;51.360;6.686;2023-04-03T10:34:28;10.30;1.00
42663;DHT22;44330;51.360;6.686;2023-04-03T10:37:22;10.40;1.00
42663;DHT22;44330;51.360;6.686;2023-04-03T10:42:49;10.50;1.00
42663;DHT22;44330;51.360;6.686;2023-04-03T10:45:50;10.20;1.00
42663;DHT22;44330;51.360;6.686;2023-04-03T10:48:33;10.20;1.00
42663;DHT22;44330;51.360;6.686;2023-04-03T10:56:13;10.10;1.00
42663;DHT22;44330;51.360;6.686;2023-04-03T10:58:45;10.20;1.00
42663;DHT22;44330;51.360;6.686;2023-04-03T11:01:16;10.40;1.00
42663;DHT22;44330;51.360;6.686;2023-04-03T11:03:52;10.60;1.00
42663;DHT22;44330;51.360;6.686;2023-04-03T11:06:21;10.90;1.00
42663;DHT22;44330;51.360;6.686;2023-04-03T11:08:58;11.00;1.00
42663;DHT22;44330;51.360;6.686;2023-04-03T11:11:32;10.90;1.00
42663;DHT22;44330;51.360;6.686;2023-04-03T11:14:02;10.70;1.00
42663;DHT22;44330;51.360;6.686;2023-04-03T11:16:30;10.80;1.00
42663;DHT22;44330;51.360;6.686;2023-04-03T11:19:20;10.80;1.00
42663;DHT22;44330;51.360;6.686;2023-04-03T11:22:30;11.00;1.00
42663;DHT22;44330;51.360;6.686;2023-04-03T11:27:46;11.20;1.00
42663;DHT22;44330;51.360;6.686;2023-04-03T11:35:33;11.30;1.00
42663;DHT22;44330;51.360;6.686;2023-04-03T11:38:01;11.40;1.00
42663;DHT22;44330;51.360;6.686;2023-04-03T11:40:31;11.00;1.00
42663;DHT22;44330;51.360;6.686;2023-04-03T11:43:19;11.20;1.00
42663;DHT22;44330;51.360;6.686;2023-04-03T11:45:52;11.30;1.00
42663;DHT22;44330;51.360;6.686;2023-04-03T11:50:47;11.50;1.00
42663;DHT22;44330;51.360;6.686;2023-04-03T11:58:25;11.50;1.00
42663;DHT22;44330;51.360;6.686;2023-04-03T12:01:03;11.80;1.00
42663;DHT22;44330;51.360;6.686;2023-04-03T12:03:56;11.70;1.00
42663;DHT22;44330;51.360;6.686;2023-04-03T12:08:54;11.30;1.00
42663;DHT22;44330;51.360;6.686;2023-04-03T12:11:48;11.30;1.00
42663;DHT22;44330;51.360;6.686;2023-04-03T12:14:16;11.30;1.00
42663;DHT22;44330;51.360;6.686;2023-04-03T12:16:46;10.80;1.00
42663;DHT22;44330;51.360;6.686;2023-04-03T12:19:37;10.60;1.00
42663;DHT22;44330;51.360;6.686;2023-04-03T12:22:08;10.80;1.00
42663;DHT22;44330;51.360;6.686;2023-04-03T12:24:36;10.90;1.00
42663;DHT22;44330;51.360;6.686;2023-04-03T12:27:25;10.70;1.00
42663;DHT22;44330;51.360;6.686;2023-04-03T12:33:34;11.00;1.00
42663;DHT22;44330;51.360;6.686;2023-04-03T12:35:57;11.10;1.00
42663;DHT22;44330;51.360;6.686;2023-04-03T12:38:49;11.50;1.00
42663;DHT22;44330;51.360;6.686;2023-04-03T12:44:41;11.60;99.90
42663;DHT22;44330;51.360;6.686;2023-04-03T12:46:49;11.60;99.90
42663;DHT22;44330;51.360;6.686;2023-04-03T12:49:41;11.50;1.00
42663;DHT22;44330;51.360;6.686;2023-04-03T12:52:26;11.80;99.90
42663;DHT22;44330;51.360;6.686;2023-04-03T12:54:55;11.10;99.90
42663;DHT22;44330;51.360;6.686;2023-04-03T12:57:25;10.70;99.90
42663;DHT22;44330;51.360;6.686;2023-04-03T12:59:51;10.90;99.90
42663;DHT22;44330;51.360;6.686;2023-04-03T13:04:54;10.90;99.90
42663;DHT22;44330;51.360;6.686;2023-04-03T13:07:22;11.10;99.90
42663;DHT22;44330;51.360;6.686;2023-04-03T13:12:32;11.20;99.90
42663;DHT22;44330;51.360;6.686;2023-04-03T13:15:00;10.40;1.00
42663;DHT22;44330;51.360;6.686;2023-04-03T13:17:27;10.10;1.00
42663;DHT22;44330;51.360;6.686;2023-04-03T13:19:53;10.30;99.90
42663;DHT22;44330;51.360;6.686;2023-04-03T13:22:36;10.60;1.00
42663;DHT22;44330;51.360;6.686;2023-04-03T13:25:13;11.10;99.90
42663;DHT22;44330;51.360;6.686;2023-04-03T13:27:39;11.40;99.90
42663;DHT22;44330;51.360;6.686;2023-04-03T13:30:25;11.20;99.90
42663;DHT22;44330;51.360;6.686;2023-04-03T13:32:52;11.20;99.90
42663;DHT22;44330;51.360;6.686;2023-04-03T13:35:39;11.30;99.90
42663;DHT22;44330;51.360;6.686;2023-04-03T13:38:23;11.40;99.90
42663;DHT22;44330;51.360;6.686;2023-04-03T13:40:51;11.70;99.90
42663;DHT22;44330;51.360;6.686;2023-04-03T13:43:21;12.00;99.90
42663;DHT22;44330;51.360;6.686;2023-04-03T13:48:46;12.20;99.90
42663;DHT22;44330;51.360;6.686;2023-04-03T13:53:58;12.10;99.90
42663;DHT22;44330;51.360;6.686;2023-04-03T13:56:36;11.80;99.90
42663;DHT22;44330;51.360;6.686;2023-04-03T14:04:50;11.80;99.90
42663;DHT22;44330;51.360;6.686;2023-04-03T14:07:15;11.70;99.90
42663;DHT22;44330;51.360;6.686;2023-04-03T14:09:42;11.50;99.90
42663;DHT22;44330;51.360;6.686;2023-04-03T14:12:27;11.20;99.90
42663;DHT22;44330;51.360;6.686;2023-04-03T14:14:55;11.50;99.90
42663;DHT22;44330;51.360;6.686;2023-04-03T14:17:23;11.50;99.90
42663;DHT22;44330;51.360;6.686;2023-04-03T14:19:50;11.70;99.90
42663;DHT22;44330;51.360;6.686;2023-04-03T14:22:22;11.80;99.90
42663;DHT22;44330;51.360;6.686;2023-04-03T14:24:49;11.50;99.90
42663;DHT22;44330;51.360;6.686;2023-04-03T14:27:27;11.60;99.90
42663;DHT22;44330;51.360;6.686;2023-04-03T14:29:56;11.30;99.90
42663;DHT22;44330;51.360;6.686;2023-04-03T14:32:24;11.30;99.90
42663;DHT22;44330;51.360;6.686;2023-04-03T14:34:53;11.30;99.90
42663;DHT22;44330;51.360;6.686;2023-04-03T14:37:24;11.30;99.90
42663;DHT22;44330;51.360;6.686;2023-04-03T14:39:52;11.70;99.90
42663;DHT22;44330;51.360;6.686;2023-04-03T14:42:28;12.00;99.90
42663;DHT22;44330;51.360;6.686;2023-04-03T14:44:54;12.00;99.90
42663;DHT22;44330;51.360;6.686;2023-04-03T14:47:23;12.00;99.90
42663;DHT22;44330;51.360;6.686;2023-04-03T14:49:49;12.00;99.90
42663;DHT22;44330;51.360;6.686;2023-04-03T14:52:22;11.70;99.90
42663;DHT22;44330;51.360;6.686;2023-04-03T14:54:48;11.30;99.90
42663;DHT22;44330;51.360;6.686;2023-04-03T14:57:15;11.50;99.90
42663;DHT22;44330;51.360;6.686;2023-04-03T14:59:42;11.80;99.90
42663;DHT22;44330;51.360;6.686;2023-04-03T15:04:53;11.50;99.90
42663;DHT22;44330;51.360;6.686;2023-04-03T15:07:19;11.50;99.90
42663;DHT22;44330;51.360;6.686;2023-04-03T15:09:44;11.00;99.90
42663;DHT22;44330;51.360;6.686;2023-04-03T15:12:10;11.10;99.90
42663;DHT22;44330;51.360;6.686;2023-04-03T15:14:36;11.20;99.90
42663;DHT22;44330;51.360;6.686;2023-04-03T15:17:01;11.30;99.90
42663;DHT22;44330;51.360;6.686;2023-04-03T15:19:28;11.40;99.90
42663;DHT22;44330;51.360;6.686;2023-04-03T15:21:53;11.50;99.90
42663;DHT22;44330;51.360;6.686;2023-04-03T15:24:19;11.30;99.90
42663;DHT22;44330;51.360;6.686;2023-04-03T15:26:44;10.80;99.90
42663;DHT22;44330;51.360;6.686;2023-04-03T15:29:10;10.90;99.90
42663;DHT22;44330;51.360;6.686;2023-04-03T15:31:35;10.90;99.90
42663;DHT22;44330;51.360;6.686;2023-04-03T15:34:02;11.20;99.90
42663;DHT22;44330;51.360;6.686;2023-04-03T15:36:28;11.10;99.90
42663;DHT22;44330;51.360;6.686;2023-04-03T15:38:53;10.90;99.90
42663;DHT22;44330;51.360;6.686;2023-04-03T15:41:19;11.00;99.90
42663;DHT22;44330;51.360;6.686;2023-04-03T15:43:44;10.90;99.90
42663;DHT22;44330;51.360;6.686;2023-04-03T15:46:10;11.10;99.90
42663;DHT22;44330;51.360;6.686;2023-04-03T15:48:36;11.20;99.90
42663;DHT22;44330;51.360;6.686;2023-04-03T15:51:02;11.20;99.90
42663;DHT22;44330;51.360;6.686;2023-04-03T15:53:28;11.30;99.90
42663;DHT22;44330;51.360;6.686;2023-04-03T15:55:54;10.90;99.90
42663;DHT22;44330;51.360;6.686;2023-04-03T15:58:19;10.80;99.90
42663;DHT22;44330;51.360;6.686;2023-04-03T16:00:45;10.60;99.90
42663;DHT22;44330;51.360;6.686;2023-04-03T16:03:19;10.70;99.90
42663;DHT22;44330;51.360;6.686;2023-04-03T16:05:45;10.70;99.90
42663;DHT22;44330;51.360;6.686;2023-04-03T16:08:11;10.80;99.90
42663;DHT22;44330;51.360;6.686;2023-04-03T16:10:37;10.90;99.90
42663;DHT22;44330;51.360;6.686;2023-04-03T16:13:04;10.80;99.90
42663;DHT22;44330;51.360;6.686;2023-04-03T16:15:30;10.60;99.90
42663;DHT22;44330;51.360;6.686;2023-04-03T16:17:57;10.30;99.90
42663;DHT22;44330;51.360;6.686;2023-04-03T16:20:23;10.40;99.90
42663;DHT22;44330;51.360;6.686;2023-04-03T16:22:50;10.40;99.90
42663;DHT22;44330;51.360;6.686;2023-04-03T16:25:16;10.20;99.90
42663;DHT22;44330;51.360;6.686;2023-04-03T16:27:42;10.40;99.90
42663;DHT22;44330;51.360;6.686;2023-04-03T16:30:08;10.40;99.90
42663;DHT22;44330;51.360;6.686;2023-04-03T16:32:34;10.30;99.90
42663;DHT22;44330;51.360;6.686;2023-04-03T16:35:00;10.40;99.90
42663;DHT22;44330;51.360;6.686;2023-04-03T16:37:26;10.30;99.90
42663;DHT22;44330;51.360;6.686;2023-04-03T16:39:52;10.30;99.90
42663;DHT22;44330;51.360;6.686;2023-04-03T16:42:18;10.30;99.90
42663;DHT22;44330;51.360;6.686;2023-04-03T16:44:43;10.40;99.90
42663;DHT22;44330;51.360;6.686;2023-04-03T16:47:09;10.10;99.90
42663;DHT22;44330;51.360;6.686;2023-04-03T16:49:35;10.20;99.90
42663;DHT22;44330;51.360;6.686;2023-04-03T16:52:02;10.10;99.90
42663;DHT22;44330;51.360;6.686;2023-04-03T16:54:28;10.00;99.90
42663;DHT22;44330;51.360;6.686;2023-04-03T16:56:53;9.90;99.90
42663;DHT22;44330;51.360;6.686;2023-04-03T16:59:19;9.80;99.90
42663;DHT22;44330;51.360;6.686;2023-04-03T17:01:44;9.80;99.90
42663;DHT22;44330;51.360;6.686;2023-04-03T17:04:10;9.70;99.90
42663;DHT22;44330;51.360;6.686;2023-04-03T17:06:36;9.70;99.90
42663;DHT22;44330;51.360;6.686;2023-04-03T17:09:02;9.60;99.90
42663;DHT22;44330;51.360;6.686;2023-04-03T17:11:28;9.50;99.90
42663;DHT22;44330;51.360;6.686;2023-04-03T17:13:54;9.40;99.90
42663;DHT22;44330;51.360;6.686;2023-04-03T17:16:20;9.20;99.90